Avondale, Texas
Current Conditions -  °F | °C
As of 9:52 PM on Wednesday 22 Oct 2014 (Local Time) from KHRL Reporting Station
Clear Clear  
Wind Chill: 72°   Ceiling: Unl
Heat Index: 72°   Visibility: 10mi
Dew Point: 68°   Wind: 5mph
Humidity: 87%   Direction: 50°NE
Pressure: 30.02"   Gusts: NA
Location:  26.2089°N, 97.6849°W
Report Text: KHRL 230252Z 05004KT 10SM CLR 22/20 A3002 RMK AO2 SLP165 60001 T02220200 53011
Loading
Personal Weather Stations






























Interactive Weather Map
Tropical Storm Tracking
New forecast layout! Learn more

10-Day Weather Forecast

Advertisements
Track Severe Weather on mobile